Time;durP1;ratioP1;P1;durP2;ratioP2;P2;SDS_P1;SDS_P2;PMS_P1;PMS_P2;Temp;Humidity;BMP_temperature;BMP_pressure;BME280_temperature;BME280_humidity;BME280_pressure;Samples;Min_cycle;Max_cycle;Signal;HPM_P1;HPM_P2
2022/03/05 00:01:51;;;;;;;22.03;11.13;;;-2.30;99.90;;;;;;5012352;28;20744;-79
2022/03/05 00:04:17;;;;;;;23.47;12.40;;;-2.30;99.90;;;;;;5012035;28;20026;-79
2022/03/05 00:06:43;;;;;;;22.80;11.30;;;-2.30;99.90;;;;;;5011888;28;20022;-79
2022/03/05 00:09:08;;;;;;;23.93;12.37;;;-2.40;99.90;;;;;;4994388;28;20034;-79
2022/03/05 00:11:34;;;;;;;23.90;11.30;;;-2.40;99.90;;;;;;5011734;28;20034;-79
2022/03/05 00:14:00;;;;;;;22.97;11.30;;;-2.40;99.90;;;;;;5011722;28;20394;-78
2022/03/05 00:16:25;;;;;;;20.47;10.93;;;-2.40;99.90;;;;;;5011275;28;20065;-79
2022/03/05 00:18:51;;;;;;;22.43;10.77;;;-2.50;99.90;;;;;;5011594;28;20025;-79
2022/03/05 00:21:17;;;;;;;23.00;11.33;;;-2.50;99.90;;;;;;5011858;28;20026;-79
2022/03/05 00:23:42;;;;;;;21.17;12.03;;;-2.50;99.90;;;;;;5011698;28;20022;-79
2022/03/05 00:26:10;;;;;;;22.23;11.37;;;-2.50;99.90;;;;;;5011483;28;20028;-79
2022/03/05 00:28:36;;;;;;;21.60;11.53;;;-2.50;99.90;;;;;;5011429;28;20112;-78
2022/03/05 00:31:01;;;;;;;25.13;12.07;;;-2.50;99.90;;;;;;5011409;28;20113;-79
2022/03/05 00:33:27;;;;;;;21.30;10.47;;;-2.60;99.90;;;;;;4993498;28;20061;-78
2022/03/05 00:35:53;;;;;;;22.03;11.40;;;-2.60;99.90;;;;;;5011457;28;20037;-78
2022/03/05 00:38:19;;;;;;;22.53;12.07;;;-2.60;99.90;;;;;;5010805;28;20034;-78
2022/03/05 00:40:46;;;;;;;20.63;11.10;;;-2.60;99.90;;;;;;4993388;28;20021;-78
2022/03/05 00:43:11;;;;;;;22.83;11.57;;;-2.60;99.90;;;;;;5011318;28;20524;-77
2022/03/05 00:45:37;;;;;;;25.63;11.73;;;-2.70;99.90;;;;;;4993447;28;20027;-78
2022/03/05 00:48:03;;;;;;;20.77;11.50;;;-2.70;99.90;;;;;;5011349;28;20021;-78
2022/03/05 00:50:29;;;;;;;22.50;11.53;;;-2.70;99.90;;;;;;4993370;28;20069;-78
2022/03/05 00:52:55;;;;;;;23.87;12.57;;;-2.70;99.90;;;;;;5010887;28;20088;-78
2022/03/05 00:55:20;;;;;;;20.10;10.97;;;-2.80;99.90;;;;;;5010934;28;20030;-78
2022/03/05 00:57:46;;;;;;;20.77;12.20;;;-2.80;99.90;;;;;;5010672;28;20030;-78
2022/03/05 01:00:12;;;;;;;20.10;11.23;;;-2.80;99.90;;;;;;4993279;28;20030;-78
2022/03/05 01:02:39;;;;;;;26.03;12.97;;;-2.80;99.90;;;;;;4993185;28;20033;-78
2022/03/05 01:05:05;;;;;;;25.27;11.77;;;-2.90;99.90;;;;;;5010767;28;20113;-78
2022/03/05 01:07:31;;;;;;;20.40;11.60;;;-2.90;99.90;;;;;;5010883;28;20096;-78
2022/03/05 01:09:56;;;;;;;24.43;11.87;;;-2.80;99.90;;;;;;5010525;28;20541;-78
2022/03/05 01:12:22;;;;;;;19.73;11.40;;;-2.90;99.90;;;;;;5010554;28;20030;-78
2022/03/05 01:14:48;;;;;;;22.20;12.00;;;-2.90;99.90;;;;;;4993076;28;20463;-78
2022/03/05 01:17:14;;;;;;;21.23;11.13;;;-3.00;99.90;;;;;;5010523;28;20491;-78
2022/03/05 01:19:40;;;;;;;24.00;11.30;;;-3.00;99.90;;;;;;5010543;28;20030;-78
2022/03/05 01:22:05;;;;;;;22.33;11.50;;;-3.00;99.90;;;;;;5010528;28;20571;-78
2022/03/05 01:24:31;;;;;;;22.30;11.13;;;-3.00;99.90;;;;;;5010344;28;20394;-78
2022/03/05 01:26:57;;;;;;;23.00;11.27;;;-3.10;99.90;;;;;;5009649;28;20490;-79
2022/03/05 01:29:23;;;;;;;23.10;12.30;;;-3.10;99.90;;;;;;5010341;28;20346;-78
2022/03/05 01:31:48;;;;;;;25.67;12.67;;;-3.10;99.90;;;;;;5010610;28;20036;-78
2022/03/05 01:34:14;;;;;;;24.93;12.20;;;-3.10;99.90;;;;;;5010199;28;20760;-78
2022/03/05 01:36:39;;;;;;;21.90;12.37;;;-3.10;99.90;;;;;;5010106;28;20063;-79
2022/03/05 01:39:05;;;;;;;23.57;11.67;;;-3.20;99.90;;;;;;5009971;28;20065;-78
2022/03/05 01:41:31;;;;;;;21.67;12.07;;;-3.20;99.90;;;;;;4992829;28;20060;-78
2022/03/05 01:43:56;;;;;;;24.63;12.27;;;-3.20;99.90;;;;;;5010174;28;20018;-78
2022/03/05 01:46:34;;;;;;;25.03;13.00;;;-3.20;99.90;;;;;;5010365;28;20041;-78
2022/03/05 01:49:01;;;;;;;22.77;12.23;;;-3.20;99.90;;;;;;5010261;28;20388;-78
2022/03/05 01:51:27;;;;;;;25.57;12.63;;;-3.30;99.90;;;;;;5010097;28;20136;-78
2022/03/05 01:53:53;;;;;;;26.87;12.47;;;-3.30;99.90;;;;;;4992466;28;20060;-78
2022/03/05 01:56:19;;;;;;;21.13;11.13;;;-3.30;99.90;;;;;;5009939;28;20065;-78
2022/03/05 01:58:45;;;;;;;23.13;11.83;;;-3.30;99.90;;;;;;5010059;28;20021;-79
2022/03/05 02:01:11;;;;;;;24.13;12.43;;;-3.30;99.90;;;;;;5009943;28;20021;-79
2022/03/05 02:03:37;;;;;;;21.83;11.30;;;-3.30;99.90;;;;;;5010315;28;20069;-79
2022/03/05 02:06:03;;;;;;;20.67;10.70;;;-3.30;99.90;;;;;;5009393;28;20431;-79
2022/03/05 02:08:29;;;;;;;21.97;11.73;;;-3.20;99.90;;;;;;5010021;28;20128;-79
2022/03/05 02:10:55;;;;;;;22.10;11.20;;;-3.20;99.90;;;;;;5009894;28;20041;-79
2022/03/05 02:13:20;;;;;;;23.63;11.10;;;-3.20;99.90;;;;;;5009907;28;20030;-79
2022/03/05 02:15:52;;;;;;;23.77;11.13;;;-3.20;99.90;;;;;;5009549;28;20180;-78
2022/03/05 02:18:17;;;;;;;18.67;10.90;;;-3.20;99.90;;;;;;5009575;28;20029;-79
2022/03/05 02:20:43;;;;;;;24.03;11.23;;;-3.20;99.90;;;;;;4992470;28;20088;-79
2022/03/05 02:23:09;;;;;;;20.50;11.17;;;-3.20;99.90;;;;;;4992361;28;20061;-79
2022/03/05 02:25:34;;;;;;;20.37;10.67;;;-3.20;99.90;;;;;;5009748;28;20026;-79
2022/03/05 02:28:01;;;;;;;24.53;11.47;;;-3.20;99.90;;;;;;5009360;28;20045;-79
2022/03/05 02:30:26;;;;;;;22.40;10.87;;;-3.20;99.90;;;;;;5009778;28;20461;-79
2022/03/05 02:32:52;;;;;;;21.47;10.90;;;-3.20;99.90;;;;;;5009343;28;20072;-79
2022/03/05 02:35:17;;;;;;;20.03;10.27;;;-3.20;99.90;;;;;;4992018;28;20117;-79
2022/03/05 02:37:43;;;;;;;21.43;11.67;;;-3.20;99.90;;;;;;4991759;28;20026;-79
2022/03/05 02:40:09;;;;;;;20.37;11.23;;;-3.30;99.90;;;;;;5012909;28;20026;-79
2022/03/05 02:42:35;;;;;;;22.13;12.20;;;-3.30;99.90;;;;;;5013411;28;20022;-79
2022/03/05 02:45:00;;;;;;;17.53;10.13;;;-3.30;99.90;;;;;;5013360;28;20112;-79
2022/03/05 02:47:26;;;;;;;19.20;10.47;;;-3.40;99.90;;;;;;5013661;28;20225;-79
2022/03/05 02:49:52;;;;;;;21.77;10.60;;;-3.40;99.90;;;;;;5013438;28;20720;-79
2022/03/05 02:52:18;;;;;;;20.67;10.63;;;-3.40;99.90;;;;;;5013353;28;20120;-79
2022/03/05 02:54:43;;;;;;;22.27;10.33;;;-3.40;99.90;;;;;;4995427;28;20171;-79
2022/03/05 02:57:09;;;;;;;21.23;10.47;;;-3.40;99.90;;;;;;4995120;28;20037;-79
2022/03/05 02:59:34;;;;;;;19.23;10.63;;;-3.40;99.90;;;;;;5012787;28;20041;-79
2022/03/05 03:02:00;;;;;;;22.13;11.97;;;-3.50;99.90;;;;;;4995308;28;20034;-79
2022/03/05 03:04:25;;;;;;;25.27;11.27;;;-3.40;99.90;;;;;;4995092;28;20127;-79
2022/03/05 03:06:51;;;;;;;23.70;12.47;;;-3.50;99.90;;;;;;5013013;28;20026;-78
2022/03/05 03:09:16;;;;;;;22.67;11.93;;;-3.40;99.90;;;;;;5012976;28;20025;-78
2022/03/05 03:11:42;;;;;;;21.60;10.23;;;-3.40;99.90;;;;;;4995261;28;20104;-78
2022/03/05 03:14:07;;;;;;;21.37;11.30;;;-3.40;99.90;;;;;;5012633;28;20070;-78
2022/03/05 03:16:33;;;;;;;19.47;11.17;;;-3.40;99.90;;;;;;5012722;28;20065;-79
2022/03/05 03:18:58;;;;;;;24.07;10.97;;;-3.40;99.90;;;;;;5012818;28;20489;-79
2022/03/05 03:21:24;;;;;;;26.67;11.73;;;-3.50;99.90;;;;;;5012807;28;20061;-79
2022/03/05 03:23:50;;;;;;;26.57;11.47;;;-3.50;99.90;;;;;;4990862;28;20036;-79
2022/03/05 03:26:15;;;;;;;20.87;11.27;;;-3.60;99.90;;;;;;4993269;28;20129;-79
2022/03/05 03:28:41;;;;;;;20.93;10.83;;;-3.60;99.90;;;;;;4994601;28;20489;-79
2022/03/05 03:31:06;;;;;;;21.03;11.40;;;-3.60;99.90;;;;;;5012695;28;20030;-79
2022/03/05 03:33:32;;;;;;;25.80;11.33;;;-3.60;99.90;;;;;;5012000;28;20038;-79
2022/03/05 03:35:57;;;;;;;22.97;11.63;;;-3.70;99.90;;;;;;5012450;28;20492;-79
2022/03/05 03:38:23;;;;;;;19.30;10.37;;;-3.70;99.90;;;;;;5012521;28;20043;-79
2022/03/05 03:40:48;;;;;;;21.03;10.73;;;-3.80;99.90;;;;;;4994571;28;20036;-79
2022/03/05 03:43:14;;;;;;;19.33;11.37;;;-3.80;99.90;;;;;;5012409;28;20549;-78
2022/03/05 03:45:41;;;;;;;23.87;11.50;;;-3.80;99.90;;;;;;5012096;28;20048;-78
2022/03/05 03:48:06;;;;;;;21.20;11.30;;;-3.70;99.90;;;;;;5012231;28;20108;-78
2022/03/05 03:50:32;;;;;;;22.80;11.30;;;-3.70;99.90;;;;;;5011155;28;20029;-78
2022/03/05 03:52:58;;;;;;;18.53;11.03;;;-3.70;99.90;;;;;;5011982;28;20034;-78
2022/03/05 03:55:24;;;;;;;18.80;10.67;;;-3.70;99.90;;;;;;5012212;28;20442;-78
2022/03/05 03:57:50;;;;;;;19.53;10.70;;;-3.70;99.90;;;;;;5012176;28;20044;-78
2022/03/05 04:00:17;;;;;;;22.70;11.00;;;-3.70;99.90;;;;;;5011991;28;20497;-79
2022/03/05 04:02:43;;;;;;;19.73;10.13;;;-3.60;99.90;;;;;;5012230;28;20400;-79
2022/03/05 04:05:10;;;;;;;22.87;11.07;;;-3.50;99.90;;;;;;4994783;28;20025;-79
2022/03/05 04:10:19;;;;;;;22.03;11.53;;;-3.70;99.90;;;;;;5012084;28;20040;-79
2022/03/05 04:12:45;;;;;;;25.00;11.20;;;-3.80;99.90;;;;;;5011644;28;20061;-79
2022/03/05 04:15:11;;;;;;;21.57;11.13;;;-3.90;99.90;;;;;;5011321;28;20171;-79
2022/03/05 04:17:37;;;;;;;20.67;11.27;;;-3.90;99.90;;;;;;5011451;28;20081;-79
2022/03/05 04:20:05;;;;;;;22.40;11.10;;;-3.90;99.90;;;;;;5011748;28;20028;-79
2022/03/05 04:22:30;;;;;;;24.50;12.57;;;-3.90;99.90;;;;;;4993869;28;20026;-79
2022/03/05 04:24:56;;;;;;;20.03;10.80;;;-3.90;99.90;;;;;;5011222;28;20096;-79
2022/03/05 04:27:21;;;;;;;22.30;11.43;;;-3.90;99.90;;;;;;5011649;28;20104;-79
2022/03/05 04:29:47;;;;;;;22.80;11.47;;;-3.90;99.90;;;;;;5011496;28;20030;-79
2022/03/05 04:32:12;;;;;;;23.67;11.77;;;-3.90;99.90;;;;;;4993776;28;20048;-79
2022/03/05 04:34:38;;;;;;;24.30;11.93;;;-3.90;99.90;;;;;;5011519;28;20022;-79
2022/03/05 04:37:04;;;;;;;23.93;12.77;;;-4.00;99.90;;;;;;5011518;28;20100;-79
2022/03/05 04:39:29;;;;;;;23.23;11.50;;;-4.00;99.90;;;;;;5011342;28;20100;-79
2022/03/05 04:41:55;;;;;;;18.70;10.87;;;-4.00;99.90;;;;;;5011234;28;20468;-79
2022/03/05 04:44:20;;;;;;;21.03;10.70;;;-4.00;99.90;;;;;;4993431;28;20638;-79
2022/03/05 04:46:46;;;;;;;24.97;11.73;;;-4.00;99.90;;;;;;5011452;28;20743;-79
2022/03/05 04:49:12;;;;;;;20.90;11.60;;;-4.10;99.90;;;;;;5011347;28;20088;-79
2022/03/05 04:51:38;;;;;;;27.13;13.67;;;-4.10;99.90;;;;;;5011348;28;20471;-79
2022/03/05 04:54:04;;;;;;;25.33;13.57;;;-4.10;99.90;;;;;;5011285;28;20061;-79
2022/03/05 04:56:30;;;;;;;25.43;14.37;;;-4.10;99.90;;;;;;5010897;28;20057;-79
2022/03/05 04:58:55;;;;;;;26.90;16.53;;;-4.20;99.90;;;;;;5011053;28;20466;-79
2022/03/05 05:01:21;;;;;;;22.73;12.13;;;-4.20;99.90;;;;;;5005430;28;20019;-79
2022/03/05 05:03:47;;;;;;;23.73;12.00;;;-4.20;99.90;;;;;;4990924;28;20068;-79
2022/03/05 05:06:13;;;;;;;24.47;12.77;;;-4.20;99.90;;;;;;4993617;28;20446;-79
2022/03/05 05:08:39;;;;;;;23.73;12.03;;;-4.20;99.90;;;;;;4991195;28;20036;-79
2022/03/05 05:11:05;;;;;;;23.77;12.10;;;-4.10;99.90;;;;;;4991162;28;20030;-79
2022/03/05 05:13:30;;;;;;;25.03;13.47;;;-4.20;99.90;;;;;;4993046;28;20085;-79
2022/03/05 05:15:57;;;;;;;26.40;14.77;;;-4.20;99.90;;;;;;4992710;28;20038;-79
2022/03/05 05:18:23;;;;;;;22.87;11.80;;;-4.20;99.90;;;;;;5010446;28;20042;-79
2022/03/05 05:20:48;;;;;;;27.03;13.40;;;-4.20;99.90;;;;;;5010704;28;20493;-79
2022/03/05 05:23:14;;;;;;;24.83;13.13;;;-4.30;99.90;;;;;;5010515;28;20424;-79
2022/03/05 05:25:40;;;;;;;23.07;12.40;;;-4.30;99.90;;;;;;5010567;28;20034;-79
2022/03/05 05:28:05;;;;;;;26.50;12.20;;;-4.30;99.90;;;;;;4993507;28;20540;-74
2022/03/05 05:30:31;;;;;;;25.17;12.07;;;-4.30;99.90;;;;;;4995921;28;20033;-74
2022/03/05 05:32:56;;;;;;;26.70;12.90;;;-4.40;99.90;;;;;;5013374;28;20062;-74
2022/03/05 05:35:22;;;;;;;27.20;13.77;;;-4.40;99.90;;;;;;5013401;28;20328;-74
2022/03/05 05:37:48;;;;;;;26.37;13.30;;;-4.40;99.90;;;;;;5013080;28;20041;-74
2022/03/05 05:40:13;;;;;;;32.03;14.17;;;-4.40;99.90;;;;;;5013024;28;20397;-74
2022/03/05 05:42:39;;;;;;;24.60;13.40;;;-4.30;99.90;;;;;;4995722;28;20048;-75
2022/03/05 05:45:05;;;;;;;28.90;13.20;;;-4.30;99.90;;;;;;5012741;28;20029;-75
2022/03/05 05:47:30;;;;;;;22.87;12.60;;;-4.30;99.90;;;;;;5013014;28;20366;-74
2022/03/05 05:49:56;;;;;;;24.17;13.17;;;-4.30;99.90;;;;;;5009870;28;20101;-74
2022/03/05 05:52:22;;;;;;;27.00;14.47;;;-4.40;99.90;;;;;;5009938;28;20030;-75
2022/03/05 05:54:47;;;;;;;26.17;13.57;;;-4.40;99.90;;;;;;5012734;28;20467;-82
2022/03/05 05:57:13;;;;;;;24.70;13.03;;;-4.40;99.90;;;;;;4995326;28;20467;-75
2022/03/05 05:59:38;;;;;;;27.90;14.40;;;-4.40;99.90;;;;;;5013245;28;20030;-74
2022/03/05 06:02:04;;;;;;;26.10;13.63;;;-4.40;99.90;;;;;;4995438;28;20097;-75
2022/03/05 06:04:30;;;;;;;25.80;13.90;;;-4.40;99.90;;;;;;5013460;28;20033;-74
2022/03/05 06:06:55;;;;;;;27.50;13.07;;;-4.30;99.90;;;;;;5013307;28;20030;-74
2022/03/05 06:09:21;;;;;;;23.30;13.17;;;-4.20;99.90;;;;;;5013254;28;20057;-74
2022/03/05 06:11:47;;;;;;;25.93;14.30;;;-4.20;99.90;;;;;;5013124;28;20041;-74
2022/03/05 06:14:13;;;;;;;28.93;15.60;;;-4.20;99.90;;;;;;5012682;28;20033;-74
2022/03/05 06:16:39;;;;;;;29.00;14.90;;;-4.20;99.90;;;;;;5012743;28;20053;-74
2022/03/05 06:19:04;;;;;;;32.20;16.17;;;-4.20;99.90;;;;;;4995672;28;20029;-74
2022/03/05 06:21:30;;;;;;;35.43;16.87;;;-4.10;99.90;;;;;;5013425;28;20512;-74
2022/03/05 06:23:55;;;;;;;26.97;14.20;;;-4.10;99.90;;;;;;5013220;28;20483;-75
2022/03/05 06:26:21;;;;;;;29.37;14.43;;;-4.00;99.90;;;;;;5013150;28;20034;-74
2022/03/05 06:28:46;;;;;;;31.87;14.90;;;-4.00;99.90;;;;;;5012996;28;20034;-74
2022/03/05 06:31:12;;;;;;;30.30;15.33;;;-4.00;99.90;;;;;;5012743;28;20037;-74
2022/03/05 06:33:38;;;;;;;34.77;15.90;;;-4.00;99.90;;;;;;4995032;28;20394;-74
2022/03/05 06:36:04;;;;;;;31.93;16.87;;;-3.90;99.90;;;;;;5012700;28;20032;-75
2022/03/05 06:38:29;;;;;;;30.60;14.57;;;-3.90;99.90;;;;;;5012554;28;20429;-74
2022/03/05 06:40:55;;;;;;;30.80;15.77;;;-3.70;99.90;;;;;;5012640;28;20200;-75
2022/03/05 06:43:21;;;;;;;26.13;14.60;;;-3.60;99.90;;;;;;5012593;28;20026;-75
2022/03/05 06:45:47;;;;;;;30.93;15.63;;;-3.60;99.90;;;;;;4995358;28;20033;-74
2022/03/05 06:48:13;;;;;;;33.63;17.23;;;-3.60;99.90;;;;;;5013144;28;20414;-74
2022/03/05 06:50:39;;;;;;;28.00;15.60;;;-3.50;99.90;;;;;;4994826;28;20117;-74
2022/03/05 06:53:05;;;;;;;27.90;14.87;;;-3.40;99.90;;;;;;5012503;28;20030;-74
2022/03/05 06:55:31;;;;;;;31.77;15.50;;;-3.30;99.90;;;;;;5012437;28;20030;-74
2022/03/05 06:57:56;;;;;;;28.90;14.73;;;-3.20;99.90;;;;;;5012467;28;20041;-74
2022/03/05 07:00:22;;;;;;;30.33;15.20;;;-2.90;99.90;;;;;;5012581;28;20097;-74
2022/03/05 07:02:48;;;;;;;30.47;16.17;;;-2.60;99.90;;;;;;5012709;28;20026;-74
2022/03/05 07:05:14;;;;;;;28.60;15.20;;;-2.50;99.90;;;;;;5012563;28;20030;-74
2022/03/05 07:07:40;;;;;;;26.03;14.53;;;-2.40;99.90;;;;;;5012590;28;20032;-75
2022/03/05 07:10:06;;;;;;;36.00;18.07;;;-2.30;99.90;;;;;;5012851;28;20109;-74
2022/03/05 07:12:33;;;;;;;33.23;15.13;;;-2.30;99.90;;;;;;5012510;28;20026;-74
2022/03/05 07:14:59;;;;;;;32.50;15.93;;;-2.20;99.90;;;;;;5012641;28;20071;-74
2022/03/05 07:17:25;;;;;;;34.13;17.00;;;-2.20;99.90;;;;;;5012141;28;20057;-74
2022/03/05 07:19:51;;;;;;;33.53;18.17;;;-2.10;99.90;;;;;;5012463;28;20040;-74
2022/03/05 07:22:17;;;;;;;30.17;15.90;;;-2.20;99.90;;;;;;5012381;28;20025;-74
2022/03/05 07:24:43;;;;;;;34.13;16.17;;;-2.10;99.90;;;;;;5012467;28;20026;-74
2022/03/05 07:27:08;;;;;;;30.53;15.53;;;-2.00;99.90;;;;;;5015383;28;20076;-74
2022/03/05 07:29:34;;;;;;;31.37;16.67;;;-1.90;99.90;;;;;;5015630;28;20034;-74
2022/03/05 07:32:00;;;;;;;35.00;16.67;;;-1.80;99.90;;;;;;5015850;28;20030;-74
2022/03/05 07:34:26;;;;;;;31.80;17.30;;;-1.70;99.90;;;;;;4997889;28;20030;-74
2022/03/05 07:36:51;;;;;;;32.90;16.30;;;-1.50;99.90;;;;;;4998361;28;20029;-74
2022/03/05 07:39:17;;;;;;;38.60;16.40;;;-1.50;99.90;;;;;;5015462;28;20030;-74
2022/03/05 07:41:43;;;;;;;32.43;16.97;;;-1.40;99.90;;;;;;5015925;28;20025;-75
2022/03/05 07:44:08;;;;;;;34.70;17.30;;;-1.10;99.90;;;;;;5015894;28;20478;-74
2022/03/05 07:46:38;;;;;;;33.87;17.60;;;-1.00;99.90;;;;;;5015583;28;20506;-74
2022/03/05 07:49:05;;;;;;;32.30;16.30;;;-1.10;99.90;;;;;;4997756;28;20087;-74
2022/03/05 07:51:31;;;;;;;34.13;17.17;;;-0.90;99.90;;;;;;5015670;28;20105;-75
2022/03/05 07:53:57;;;;;;;32.83;17.20;;;-0.90;99.90;;;;;;5015522;28;20030;-75
2022/03/05 07:56:22;;;;;;;34.53;17.70;;;-0.90;99.90;;;;;;5015283;28;20096;-75
2022/03/05 07:58:48;;;;;;;35.60;17.33;;;-0.90;99.90;;;;;;5015346;28;20115;-75
2022/03/05 08:01:14;;;;;;;32.00;16.77;;;-0.80;99.90;;;;;;4997548;28;20037;-75
2022/03/05 08:03:39;;;;;;;38.33;20.73;;;-0.50;99.90;;;;;;5015114;28;20514;-75
2022/03/05 08:06:05;;;;;;;33.80;17.10;;;-0.50;99.90;;;;;;5015078;28;20030;-74
2022/03/05 08:08:31;;;;;;;32.27;17.33;;;-0.20;99.90;;;;;;5011793;28;20046;-78
2022/03/05 08:10:56;;;;;;;33.60;17.90;;;-0.30;99.90;;;;;;5009468;28;20124;-78
2022/03/05 08:13:22;;;;;;;33.53;18.50;;;-0.30;99.90;;;;;;5009427;28;20048;-78
2022/03/05 08:15:48;;;;;;;34.63;19.10;;;-0.10;99.90;;;;;;5009008;28;20036;-77
2022/03/05 08:18:14;;;;;;;37.07;21.83;;;0.10;99.90;;;;;;5009299;28;20034;-78
2022/03/05 08:20:40;;;;;;;35.37;19.20;;;0.20;99.90;;;;;;5009412;28;20033;-79
2022/03/05 08:23:08;;;;;;;33.30;17.90;;;0.10;99.90;;;;;;5016008;28;20038;-79
2022/03/05 08:25:34;;;;;;;35.80;18.50;;;0.30;99.90;;;;;;4996445;28;20038;-79
2022/03/05 08:28:00;;;;;;;35.33;18.23;;;0.50;99.90;;;;;;5009675;28;20036;-79
2022/03/05 08:30:25;;;;;;;34.27;19.00;;;0.50;99.90;;;;;;5009625;28;20076;-79
2022/03/05 08:32:51;;;;;;;30.30;17.90;;;0.70;99.90;;;;;;4991831;28;20136;-78
2022/03/05 08:35:18;;;;;;;36.73;18.40;;;0.80;99.90;;;;;;4991227;28;20526;-79
2022/03/05 08:37:44;;;;;;;34.27;18.70;;;0.90;99.90;;;;;;4991009;28;20136;-78
2022/03/05 08:40:12;;;;;;;33.57;18.63;;;1.10;99.90;;;;;;5009261;28;20022;-78
2022/03/05 08:42:38;;;;;;;33.60;18.57;;;1.20;99.90;;;;;;5009073;28;20109;-79
2022/03/05 08:45:06;;;;;;;36.63;19.50;;;1.30;99.90;;;;;;4985363;28;20487;-79
2022/03/05 08:47:32;;;;;;;33.13;18.70;;;1.20;99.90;;;;;;4997668;28;20126;-80
2022/03/05 08:49:58;;;;;;;34.03;18.83;;;1.30;99.90;;;;;;4971962;28;20034;-79
2022/03/05 08:52:23;;;;;;;37.03;19.17;;;1.70;99.90;;;;;;4995854;28;20521;-78
2022/03/05 08:54:49;;;;;;;32.57;18.47;;;1.80;99.90;;;;;;5009134;28;20636;-78
2022/03/05 08:57:15;;;;;;;41.33;22.80;;;2.10;99.90;;;;;;5008619;28;20084;-78
2022/03/05 08:59:40;;;;;;;71.37;36.33;;;2.20;99.90;;;;;;5009052;28;20041;-78
2022/03/05 09:02:06;;;;;;;39.53;23.00;;;2.40;99.90;;;;;;5008730;28;20120;-79
2022/03/05 09:04:32;;;;;;;39.20;24.00;;;2.60;99.90;;;;;;5008860;28;20030;-79
2022/03/05 09:06:58;;;;;;;37.63;22.13;;;2.60;99.90;;;;;;5008668;28;20101;-79
2022/03/05 09:09:24;;;;;;;32.00;20.73;;;2.90;99.90;;;;;;4990901;28;20156;-78
2022/03/05 09:11:50;;;;;;;28.93;18.37;;;3.10;99.90;;;;;;5008672;28;20044;-78
2022/03/05 09:14:15;;;;;;;30.67;19.17;;;3.10;99.90;;;;;;5008847;28;20054;-79
2022/03/05 09:16:41;;;;;;;33.60;20.60;;;3.10;99.90;;;;;;4990544;28;20060;-79
2022/03/05 09:19:07;;;;;;;32.10;19.03;;;3.40;99.90;;;;;;5008269;28;20037;-79
2022/03/05 09:21:37;;;;;;;31.57;18.60;;;3.50;99.90;;;;;;5008589;28;20030;-79
2022/03/05 09:24:04;;;;;;;70.60;24.43;;;3.50;99.90;;;;;;5008376;28;20037;-79
2022/03/05 09:26:31;;;;;;;26.70;16.37;;;3.80;99.90;;;;;;4990459;28;20034;-79
2022/03/05 09:28:56;;;;;;;38.73;19.03;;;3.90;99.90;;;;;;5008478;28;20092;-79
2022/03/05 09:31:22;;;;;;;27.03;15.43;;;3.80;99.90;;;;;;5007735;28;20423;-79
2022/03/05 09:33:47;;;;;;;27.27;16.47;;;3.90;99.90;;;;;;4990284;28;20673;-79
2022/03/05 09:36:13;;;;;;;34.23;19.20;;;4.00;99.90;;;;;;5008347;28;20056;-78
2022/03/05 09:38:39;;;;;;;29.97;16.97;;;4.20;99.90;;;;;;5008090;28;20240;-79
2022/03/05 09:41:06;;;;;;;39.63;19.77;;;4.20;99.90;;;;;;5008039;28;20037;-79
2022/03/05 09:43:34;;;;;;;37.27;18.67;;;4.50;99.90;;;;;;5007746;28;20080;-79
2022/03/05 09:46:00;;;;;;;38.37;18.80;;;4.50;99.90;;;;;;5002212;28;20044;-79
2022/03/05 09:48:30;;;;;;;33.47;17.37;;;4.50;99.90;;;;;;5000174;28;20537;-79
2022/03/05 09:50:57;;;;;;;32.60;17.07;;;4.50;99.90;;;;;;4989980;28;20191;-79
2022/03/05 09:53:30;;;;;;;37.67;17.97;;;4.40;99.90;;;;;;5007471;28;20034;-79
2022/03/05 09:55:55;;;;;;;31.30;17.07;;;4.40;99.90;;;;;;5007838;28;20052;-78
2022/03/05 09:58:21;;;;;;;30.90;16.07;;;4.40;99.90;;;;;;5007119;28;20034;-79
2022/03/05 10:00:47;;;;;;;38.50;17.53;;;4.50;99.90;;;;;;4989800;28;20217;-79
2022/03/05 10:03:14;;;;;;;31.37;15.70;;;4.60;99.90;;;;;;4989488;28;20386;-79
2022/03/05 10:05:39;;;;;;;26.07;14.63;;;4.50;99.90;;;;;;5007707;28;20029;-78
2022/03/05 10:08:12;;;;;;;23.63;13.83;;;4.40;99.90;;;;;;5006768;28;20042;-78
2022/03/05 10:10:48;;;;;;;31.80;17.20;;;4.10;99.90;;;;;;5007110;28;20081;-78
2022/03/05 10:13:28;;;;;;;55.20;26.37;;;3.90;99.90;;;;;;5007145;28;20049;-79
2022/03/05 10:15:56;;;;;;;33.97;17.67;;;3.70;99.90;;;;;;4989917;28;20438;-78
2022/03/05 10:18:29;;;;;;;31.53;17.83;;;3.60;99.90;;;;;;5007115;28;20038;-79
2022/03/05 10:20:55;;;;;;;26.63;15.10;;;3.50;99.90;;;;;;4989397;28;20029;-79
2022/03/05 10:23:21;;;;;;;24.83;15.20;;;3.30;99.90;;;;;;5007010;28;20029;-79
2022/03/05 10:25:52;;;;;;;29.60;16.97;;;3.40;99.90;;;;;;4989410;28;20026;-79
2022/03/05 10:28:22;;;;;;;24.03;12.93;;;3.70;99.90;;;;;;5006849;28;20033;-79
2022/03/05 10:30:53;;;;;;;25.97;16.20;;;3.70;99.90;;;;;;5007422;28;20034;-78
2022/03/05 10:33:32;;;;;;;24.07;13.37;;;3.70;99.90;;;;;;5006987;28;20455;-78
2022/03/05 10:36:02;;;;;;;19.33;12.33;;;3.90;99.90;;;;;;4989324;28;20104;-78
2022/03/05 10:38:53;;;;;;;20.67;13.23;;;4.10;99.90;;;;;;4989116;28;20087;-79
2022/03/05 10:41:20;;;;;;;25.87;13.37;;;3.90;99.90;;;;;;4989675;28;20125;-79
2022/03/05 10:44:02;;;;;;;22.13;13.97;;;3.80;99.90;;;;;;5007138;28;20041;-79
2022/03/05 10:47:00;;;;;;;30.57;15.40;;;3.60;99.90;;;;;;4995530;28;20045;-79
2022/03/05 10:49:35;;;;;;;26.30;14.23;;;3.60;99.90;;;;;;4991782;28;20070;-79
2022/03/05 10:52:06;;;;;;;20.63;12.55;;;3.80;99.90;;;;;;5009420;28;20112;-79
2022/03/05 10:54:40;;;;;;;18.93;11.80;;;3.90;99.90;;;;;;5009012;28;20014;-77
2022/03/05 10:57:23;;;;;;;27.77;16.73;;;4.00;99.90;;;;;;5008999;28;20022;-78
2022/03/05 10:59:49;;;;;;;20.40;12.07;;;4.10;99.90;;;;;;5011110;28;20422;-77
2022/03/05 11:02:16;;;;;;;24.33;13.70;;;4.60;99.90;;;;;;5013596;28;20018;-78
2022/03/05 11:04:43;;;;;;;20.97;11.93;;;4.90;99.90;;;;;;5013452;28;20047;-78
2022/03/05 11:07:09;;;;;;;19.20;12.23;;;5.30;99.90;;;;;;5013363;28;20018;-79
2022/03/05 11:09:37;;;;;;;17.50;10.47;;;5.40;99.90;;;;;;4995871;28;20030;-79
2022/03/05 11:12:04;;;;;;;18.53;10.73;;;5.40;99.90;;;;;;5013541;28;20040;-78
2022/03/05 11:14:30;;;;;;;16.93;10.27;;;5.40;99.90;;;;;;5013284;28;20022;-79
2022/03/05 11:16:56;;;;;;;16.07;10.17;;;5.10;99.40;;;;;;5012791;28;20053;-79
2022/03/05 11:19:23;;;;;;;17.60;10.03;;;4.80;99.80;;;;;;5013297;28;20077;-79
2022/03/05 11:21:48;;;;;;;15.40;8.87;;;4.70;99.80;;;;;;5013002;28;20068;-79
2022/03/05 11:24:18;;;;;;;15.83;10.00;;;4.70;99.70;;;;;;5013029;28;20426;-78
2022/03/05 11:26:47;;;;;;;17.20;9.63;;;4.90;99.50;;;;;;4995491;28;20546;-78
2022/03/05 11:29:16;;;;;;;16.73;9.93;;;5.20;98.90;;;;;;5013430;28;20022;-78
2022/03/05 11:31:42;;;;;;;15.23;9.70;;;5.50;97.50;;;;;;5013055;28;20061;-78
2022/03/05 11:34:17;;;;;;;14.03;9.53;;;5.60;97.00;;;;;;5013392;28;20439;-78
2022/03/05 11:36:44;;;;;;;;;;;5.90;95.50;;;;;;5013162;28;20105;-78
2022/03/05 11:39:27;;;;;;;14.77;9.50;;;6.20;94.70;;;;;;5012836;28;19913;-79
2022/03/05 11:42:05;;;;;;;14.50;9.67;;;6.40;94.90;;;;;;5012861;28;20026;-79
2022/03/05 11:44:36;;;;;;;16.50;9.90;;;6.70;93.40;;;;;;5009682;28;20109;-77
2022/03/05 11:47:23;;;;;;;15.33;10.47;;;6.80;92.10;;;;;;4995075;28;20033;-79
2022/03/05 11:50:00;;;;;;;16.07;10.60;;;7.10;92.70;;;;;;5012705;28;20076;-78
2022/03/05 11:52:38;;;;;;;14.23;9.40;;;7.50;90.10;;;;;;4995060;28;20117;-79
2022/03/05 11:55:17;;;;;;;15.00;10.10;;;7.40;88.70;;;;;;5012972;28;20025;-78
2022/03/05 11:57:52;;;;;;;9.50;6.83;;;7.50;86.60;;;;;;5012482;28;20022;-78
2022/03/05 12:00:28;;;;;;;12.50;7.90;;;7.60;81.50;;;;;;5012894;28;20494;-78
2022/03/05 12:02:54;;;;;;;13.77;8.07;;;7.80;81.90;;;;;;5012164;28;20041;-79
2022/03/05 12:05:38;;;;;;;12.00;8.23;;;8.00;82.40;;;;;;5012959;28;20101;-79
2022/03/05 12:08:32;;;;;;;11.87;8.10;;;8.10;79.50;;;;;;5012365;28;20034;-79
2022/03/05 12:11:15;;;;;;;12.30;7.93;;;8.20;76.00;;;;;;4994121;28;20136;-79
2022/03/05 12:13:44;;;;;;;13.37;8.20;;;8.10;76.30;;;;;;5012305;28;20038;-79
2022/03/05 12:16:18;;;;;;;11.83;8.03;;;7.90;77.30;;;;;;4994828;28;20057;-79
2022/03/05 12:18:45;;;;;;;12.43;8.17;;;7.90;78.90;;;;;;5012341;28;20059;-79
2022/03/05 12:21:11;;;;;;;12.67;8.50;;;7.90;77.80;;;;;;5012335;28;20519;-79
2022/03/05 12:23:37;;;;;;;13.47;8.47;;;8.10;77.50;;;;;;5012296;28;20148;-79
2022/03/05 12:26:04;;;;;;;12.33;7.83;;;7.90;75.00;;;;;;5012242;28;20041;-77
2022/03/05 12:28:41;;;;;;;10.90;7.97;;;8.20;76.30;;;;;;5011643;28;20034;-79
2022/03/05 12:31:18;;;;;;;15.13;10.33;;;8.70;74.80;;;;;;4994545;28;20431;-79
2022/03/05 12:33:48;;;;;;;13.30;8.83;;;8.70;74.80;;;;;;4994122;28;20084;-78